This is the latest recevied weather packets stored in our database for station/object SR7U-1. If no packets are shown the sender has not sent any weather packets the latest 10 day(s).
| Time | Temp. | Humidity | Pressure | Rain* | Wind** | Luminosity | Snow |
|---|---|---|---|---|---|---|---|
| 1778008898 | 21.11° C | 27% | 1006.7 hPa | - | - | - | - |
| 1778008050 | 21.11° C | 27% | 1006.7 hPa | - | - | - | - |
| 1778007150 | 22.22° C | 27% | 1006.7 hPa | - | - | - | - |
| 1778006370 | 22.78° C | 27% | 1006.5 hPa | - | - | - | - |
| 1778005555 | 22.78° C | 28% | 1006.4 hPa | - | - | - | - |
| 1778004755 | 22.78° C | 29% | 1006.3 hPa | - | - | - | - |
| 1778003925 | 22.78° C | 33% | 1006.2 hPa | - | - | - | - |
| 1778003155 | 23.89° C | 29% | 1006.2 hPa | - | - | - | - |
| 1778002418 | 24.44° C | 26% | 1006.1 hPa | - | - | - | - |
| 1778001600 | 25.56° C | 24% | 1006.1 hPa | - | - | - | - |
| 1778000862 | 25.56° C | 23% | 1006.2 hPa | - | - | - | - |
| 1778000090 | 26.11° C | 22% | 1006.2 hPa | - | - | - | - |
| 1777999365 | 26.11° C | 23% | 1006.3 hPa | - | - | - | - |
| 1777998615 | 26.67° C | 23% | 1006.4 hPa | - | - | - | - |
| 1777997825 | 26.67° C | 24% | 1006.3 hPa | - | - | - | - |
| 1777997020 | 25.56° C | 24% | 1006.3 hPa | - | - | - | - |
| 1777996260 | 24.44° C | 26% | 1006.6 hPa | - | - | - | - |
| 1777995362 | 25° C | 27% | 1006.6 hPa | - | - | - | - |
| 1777994635 | 25° C | 26% | 1006.6 hPa | - | - | - | - |
| 1777993820 | 25° C | 26% | 1006.7 hPa | - | - | - | - |
| 1777992945 | 25° C | 26% | 1006.8 hPa | - | - | - | - |
| 1777992078 | 25° C | 25% | 1006.8 hPa | - | - | - | - |
| 1777991218 | 25° C | 25% | 1006.9 hPa | - | - | - | - |
| 1777990489 | 25° C | 25% | 1007.2 hPa | - | - | - | - |
| 1777989765 | 25° C | 25% | 1007.3 hPa | - | - | - | - |
* Rain since midnight (hover to see other rain measurements)
** Current wind speed in m/s (hover to see current wind gust speed)